createdAt,value
2022-11-21T00:01:32.100Z,99411.91
2022-11-21T00:04:35.308Z,99402.38
2022-11-21T00:07:37.325Z,99410.06
2022-11-21T00:10:39.935Z,99397.31
2022-11-21T00:13:41.732Z,99405.94
2022-11-21T00:16:45.421Z,99404.41
2022-11-21T00:19:48.424Z,99403.47
2022-11-21T00:22:50.398Z,99405.47
2022-11-21T00:25:52.038Z,99414.03
2022-11-21T00:28:53.793Z,99403.31
2022-11-21T00:31:55.510Z,99406.69
2022-11-21T00:34:58.476Z,99414.03
2022-11-21T00:38:00.109Z,99412.94
2022-11-21T00:41:01.747Z,99408.16
2022-11-21T00:44:03.649Z,99410.44
2022-11-21T00:47:05.384Z,99401.22
2022-11-21T00:50:09.847Z,99402.28
2022-11-21T00:53:11.691Z,99401.56
2022-11-21T00:56:13.576Z,99399.72
2022-11-21T00:59:15.226Z,99394.50
2022-11-21T01:02:16.914Z,99400.81
2022-11-21T01:05:19.977Z,99393.81
2022-11-21T01:08:21.614Z,99378.97
2022-11-21T01:11:23.390Z,99374.38
2022-11-21T01:14:25.351Z,99365.03
2022-11-21T01:17:27.370Z,99364.13
2022-11-21T01:20:30.331Z,99370.25
2022-11-21T01:23:31.959Z,99359.59
2022-11-21T01:26:33.947Z,99360.53
2022-11-21T01:29:35.595Z,99359.47
2022-11-21T01:32:37.219Z,99371.06
2022-11-21T01:35:40.171Z,99366.81
2022-11-21T01:38:43.895Z,99366.53
2022-11-21T01:41:46.257Z,99374.03
2022-11-21T01:44:50.726Z,99377.75
2022-11-21T01:47:52.312Z,99378.66
2022-11-21T01:50:58.704Z,99378.50
2022-11-21T01:54:05.374Z,99374.97
2022-11-21T01:57:10.203Z,99379.28
2022-11-21T02:00:16.197Z,99370.81
2022-11-21T02:03:22.555Z,99363.66
2022-11-21T02:06:27.545Z,99361.16
2022-11-21T02:09:31.700Z,99356.41
2022-11-21T02:12:40.917Z,99362.88
2022-11-21T02:15:42.706Z,99364.44
2022-11-21T02:18:44.427Z,99362.91
2022-11-21T02:21:54.434Z,99365.84
2022-11-21T02:25:05.073Z,99363.69
2022-11-21T02:28:09.424Z,99368.16
2022-11-21T02:31:11.032Z,99368.44
2022-11-21T02:34:12.815Z,99363.25
2022-11-21T02:37:14.529Z,99376.72
2022-11-21T02:40:21.935Z,99377.16
2022-11-21T02:43:25.828Z,99371.16
2022-11-21T02:46:27.918Z,99374.81
2022-11-21T02:49:39.586Z,99370.69
2022-11-21T02:52:41.582Z,99362.56
2022-11-21T02:55:44.884Z,99365.16
2022-11-21T02:58:46.529Z,99365.31
2022-11-21T03:01:48.147Z,99367.31
2022-11-21T03:04:49.879Z,99369.00
2022-11-21T03:07:51.631Z,99367.44
2022-11-21T03:10:54.661Z,99367.91
2022-11-21T03:13:56.317Z,99360.69
2022-11-21T03:16:57.866Z,99348.88
2022-11-21T03:19:59.707Z,99357.34
2022-11-21T03:23:01.833Z,99358.13
2022-11-21T03:26:04.803Z,99360.53
2022-11-21T03:29:07.250Z,99359.31
2022-11-21T03:32:08.900Z,99352.56
2022-11-21T03:35:11.606Z,99346.31
2022-11-21T03:38:13.228Z,99349.69
2022-11-21T03:41:31.203Z,99345.97
2022-11-21T03:44:32.798Z,99359.78
2022-11-21T03:47:34.507Z,99360.13
2022-11-21T03:50:36.214Z,99355.94
2022-11-21T03:53:37.826Z,99357.03
2022-11-21T03:56:40.839Z,99355.81
2022-11-21T03:59:42.623Z,99355.16
2022-11-21T04:02:44.432Z,99355.16
2022-11-21T04:05:46.053Z,99348.91
2022-11-21T04:08:48.123Z,99341.09
2022-11-21T04:11:51.090Z,99347.22
2022-11-21T04:14:52.878Z,99362.38
2022-11-21T04:17:54.587Z,99348.56
2022-11-21T04:20:57.785Z,99350.84
2022-11-21T04:23:59.409Z,99356.69
2022-11-21T04:27:02.344Z,99357.03
2022-11-21T04:30:04.920Z,99349.06
2022-11-21T04:33:06.834Z,99349.81
2022-11-21T04:36:09.149Z,99356.28
2022-11-21T04:39:10.826Z,99357.50
2022-11-21T04:42:13.898Z,99361.47
2022-11-21T04:45:16.385Z,99366.22
2022-11-21T04:48:18.045Z,99356.53
2022-11-21T04:51:19.762Z,99359.75
2022-11-21T04:54:21.399Z,99359.91
2022-11-21T04:57:24.890Z,99358.66
2022-11-21T05:00:26.617Z,99353.09
2022-11-21T05:03:28.235Z,99364.59
2022-11-21T05:06:30.099Z,99350.78
2022-11-21T05:09:31.726Z,99355.09
2022-11-21T05:12:53.195Z,99354.31
2022-11-21T05:15:56.846Z,99349.38
2022-11-21T05:18:58.561Z,99339.88
2022-11-21T05:22:00.200Z,99352.63
2022-11-21T05:25:02.015Z,99349.53
2022-11-21T05:28:05.397Z,99347.22
2022-11-21T05:31:07.186Z,99353.19
2022-11-21T05:34:08.993Z,99342.13
2022-11-21T05:37:10.654Z,99340.75
2022-11-21T05:40:12.715Z,99344.47
2022-11-21T05:43:34.422Z,99349.06
2022-11-21T05:46:36.066Z,99337.22
2022-11-21T05:49:37.717Z,99345.41
2022-11-21T05:52:39.359Z,99339.25
2022-11-21T05:55:41.040Z,99345.34
2022-11-21T05:58:44.678Z,99347.31
2022-11-21T06:02:18.609Z,99346.38
2022-11-21T06:05:20.291Z,99352.25
2022-11-21T06:08:21.952Z,99349.34
2022-11-21T06:11:23.666Z,99351.50
2022-11-21T06:14:27.036Z,99358.41
2022-11-21T06:17:28.990Z,99356.88
2022-11-21T06:20:30.633Z,99359.75
2022-11-21T06:23:32.496Z,99363.44
2022-11-21T06:26:34.056Z,99365.31
2022-11-21T06:29:37.214Z,99357.00
2022-11-21T06:32:38.817Z,99356.06
2022-11-21T06:35:40.555Z,99348.69
2022-11-21T06:38:42.582Z,99349.66
2022-11-21T06:41:50.780Z,99344.84
2022-11-21T06:44:53.839Z,99343.47
2022-11-21T06:47:55.651Z,99350.84
2022-11-21T06:50:58.008Z,99350.69
2022-11-21T06:53:59.761Z,99356.88
2022-11-21T06:57:01.522Z,99356.66
2022-11-21T07:00:06.400Z,99355.91
2022-11-21T07:03:08.063Z,99363.44
2022-11-21T07:06:09.907Z,99365.09
2022-11-21T07:09:32.367Z,99355.44
2022-11-21T07:12:53.091Z,99359.59
2022-11-21T07:16:02.038Z,99361.59
2022-11-21T07:19:03.625Z,99358.13
2022-11-21T07:22:05.557Z,99363.53
2022-11-21T07:25:07.601Z,99366.75
2022-11-21T07:28:09.979Z,99361.50
2022-11-21T07:31:14.120Z,99363.97
2022-11-21T07:34:15.971Z,99367.66
2022-11-21T07:37:17.684Z,99366.41
2022-11-21T07:40:20.446Z,99371.91
2022-11-21T07:43:22.110Z,99371.34
2022-11-21T07:46:25.134Z,99374.22
2022-11-21T07:49:27.088Z,99374.66
2022-11-21T07:52:30.365Z,99371.97
2022-11-21T07:55:37.695Z,99380.81
2022-11-21T07:58:42.029Z,99387.69
2022-11-21T08:01:45.713Z,99382.91
2022-11-21T08:04:47.837Z,99381.22
2022-11-21T08:07:49.968Z,99384.41
2022-11-21T08:10:51.618Z,99390.06
2022-11-21T08:13:53.342Z,99390.19
2022-11-21T08:16:56.365Z,99388.81
2022-11-21T08:20:00.207Z,99393.59
2022-11-21T08:23:01.945Z,99386.78
2022-11-21T08:26:03.629Z,99388.91
2022-11-21T08:29:05.256Z,99378.00
2022-11-21T08:32:08.288Z,99381.09
2022-11-21T08:35:10.020Z,99374.53
2022-11-21T08:38:11.780Z,99376.50
2022-11-21T08:41:31.881Z,99374.13
2022-11-21T08:44:34.704Z,99372.00
2022-11-21T08:47:37.831Z,99371.00
2022-11-21T08:50:39.507Z,99375.03
2022-11-21T08:53:41.214Z,99366.44
2022-11-21T08:56:42.966Z,99364.78
2022-11-21T08:59:44.658Z,99368.94
2022-11-21T09:02:47.694Z,99371.41
2022-11-21T09:05:49.323Z,99374.97
2022-11-21T09:08:51.506Z,99376.94
2022-11-21T09:11:53.184Z,99373.22
2022-11-21T09:15:13.797Z,99369.53
2022-11-21T09:18:16.790Z,99360.94
2022-11-21T09:21:19.363Z,99360.28
2022-11-21T09:24:21.216Z,99366.66
2022-11-21T09:27:22.810Z,99353.97
2022-11-21T09:30:24.439Z,99362.78
2022-11-21T09:33:27.402Z,99356.50
2022-11-21T09:36:29.087Z,99358.19
2022-11-21T09:39:30.967Z,99363.06
2022-11-21T09:42:54.849Z,99357.19
2022-11-21T09:46:02.985Z,99361.69
2022-11-21T09:49:10.610Z,99362.06
2022-11-21T09:52:15.670Z,99370.53
2022-11-21T09:55:23.625Z,99353.22
2022-11-21T09:58:31.268Z,99345.31
2022-11-21T10:01:33.086Z,99340.53
2022-11-21T10:04:36.285Z,99345.66
2022-11-21T10:07:38.255Z,99336.41
2022-11-21T10:10:53.174Z,99330.91
2022-11-21T10:14:09.757Z,99319.72
2022-11-21T10:17:22.696Z,99306.41
2022-11-21T10:20:40.475Z,99299.13
2022-11-21T10:24:08.945Z,99306.06
2022-11-21T10:27:16.222Z,99294.97
2022-11-21T10:30:19.673Z,99291.75
2022-11-21T10:33:26.744Z,99297.19
2022-11-21T10:36:35.935Z,99290.28
2022-11-21T10:39:43.327Z,99279.41
2022-11-21T10:42:51.521Z,99275.84
2022-11-21T10:45:53.982Z,99275.84
2022-11-21T10:48:59.069Z,99280.16
2022-11-21T10:52:06.341Z,99274.16
2022-11-21T10:55:11.330Z,99265.94
2022-11-21T10:58:19.235Z,99252.63
2022-11-21T11:01:24.695Z,99248.13
2022-11-21T11:04:29.089Z,99242.44
2022-11-21T11:07:32.662Z,99233.59
2022-11-21T11:10:36.383Z,99226.16
2022-11-21T11:13:54.750Z,99218.97
2022-11-21T11:16:56.579Z,99211.16
2022-11-21T11:20:04.756Z,99214.91
2022-11-21T11:23:23.541Z,99207.03
2022-11-21T11:26:28.158Z,99202.16
2022-11-21T11:29:31.292Z,99191.75
2022-11-21T11:32:38.755Z,99184.06
2022-11-21T11:35:40.611Z,99169.22
2022-11-21T11:38:53.943Z,99164.91
2022-11-21T11:42:43.124Z,99156.16
2022-11-21T11:46:18.543Z,99152.31
2022-11-21T11:49:27.029Z,99146.41
2022-11-21T11:52:33.091Z,99140.25
2022-11-21T11:55:42.024Z,99137.28
2022-11-21T11:58:49.495Z,99132.16
2022-11-21T12:01:56.423Z,99120.84
2022-11-21T12:05:05.365Z,99119.69
2022-11-21T12:08:40.341Z,99108.72
2022-11-21T12:12:08.498Z,99111.44
2022-11-21T12:15:33.618Z,99104.94
2022-11-21T12:18:44.143Z,99094.22
2022-11-21T12:21:46.086Z,99086.25
2022-11-21T12:24:48.713Z,99081.78
2022-11-21T12:27:54.882Z,99084.06
2022-11-21T12:31:09.243Z,99083.44
2022-11-21T12:34:31.991Z,99068.44
2022-11-21T12:37:44.213Z,99066.00
2022-11-21T12:40:59.115Z,99061.91
2022-11-21T12:44:14.130Z,99063.31
2022-11-21T12:47:30.883Z,99047.31
2022-11-21T12:51:00.147Z,99046.47
2022-11-21T12:54:28.815Z,99050.75
2022-11-21T12:57:43.809Z,99036.34
2022-11-21T13:01:21.222Z,99033.47
2022-11-21T13:04:28.674Z,99027.03
2022-11-21T13:07:32.189Z,99021.19
2022-11-21T13:10:34.243Z,99011.34
2022-11-21T13:13:37.122Z,99008.78
2022-11-21T13:16:48.166Z,99003.34
2022-11-21T13:19:54.951Z,98995.94
2022-11-21T13:22:58.951Z,98989.88
2022-11-21T13:26:00.793Z,98982.34
2022-11-21T13:29:08.741Z,98969.66
2022-11-21T13:32:39.201Z,98960.31
2022-11-21T13:36:05.623Z,98955.53
2022-11-21T13:39:32.274Z,98958.16
2022-11-21T13:46:59.529Z,98948.13
2022-11-21T13:50:10.813Z,98947.22
2022-11-21T13:53:28.240Z,98950.31
2022-11-21T13:56:39.594Z,98936.94
2022-11-21T13:59:57.578Z,98927.47
2022-11-21T14:03:17.206Z,98920.84
2022-11-21T14:06:34.945Z,98908.81
2022-11-21T14:09:46.111Z,98897.28
2022-11-21T14:12:50.226Z,98897.78
2022-11-21T14:16:05.914Z,98888.94
2022-11-21T14:19:13.603Z,98886.41
2022-11-21T14:22:30.435Z,98878.47
2022-11-21T14:25:37.530Z,98876.88
2022-11-21T14:28:39.307Z,98874.91
2022-11-21T14:31:45.433Z,98871.84
2022-11-21T14:34:47.156Z,98864.97
2022-11-21T14:37:51.177Z,98868.91
2022-11-21T14:41:27.664Z,98870.81
2022-11-21T14:44:29.600Z,98870.09
2022-11-21T14:47:31.324Z,98852.78
2022-11-21T14:50:35.008Z,98859.78
2022-11-21T14:53:41.276Z,98853.50
2022-11-21T14:56:43.275Z,98847.59
2022-11-21T14:59:45.111Z,98843.16
2022-11-21T15:02:47.112Z,98835.28
2022-11-21T15:06:07.480Z,98823.28
2022-11-21T15:12:44.670Z,98812.19
2022-11-21T15:15:53.376Z,98798.19
2022-11-21T15:18:55.273Z,98783.88
2022-11-21T15:21:58.870Z,98775.50
2022-11-21T15:25:17.490Z,98768.88
2022-11-21T15:28:19.355Z,98756.47
2022-11-21T15:31:21.720Z,98747.44
2022-11-21T15:34:35.352Z,98735.88
2022-11-21T15:37:37.870Z,98727.81
2022-11-21T15:40:44.287Z,98711.97
2022-11-21T15:43:49.780Z,98706.19
2022-11-21T15:46:52.962Z,98691.25
2022-11-21T15:49:54.974Z,98695.94
2022-11-21T15:52:56.906Z,98678.41
2022-11-21T15:56:00.059Z,98671.78
2022-11-21T15:59:02.608Z,98664.25
2022-11-21T16:02:04.473Z,98651.97
2022-11-21T16:05:06.666Z,98626.91
2022-11-21T16:08:08.310Z,98633.34
2022-11-21T16:11:17.679Z,98622.78
2022-11-21T16:14:19.310Z,98610.66
2022-11-21T16:17:21.282Z,98604.84
2022-11-21T16:20:23.056Z,98604.72
2022-11-21T16:23:24.692Z,98600.19
2022-11-21T16:26:28.802Z,98591.72
2022-11-21T16:29:30.982Z,98587.97
2022-11-21T16:32:32.939Z,98586.34
2022-11-21T16:35:34.611Z,98580.03
2022-11-21T16:38:36.290Z,98592.69
2022-11-21T16:41:40.932Z,98587.34
2022-11-21T16:44:42.651Z,98573.66
2022-11-21T16:47:48.573Z,98566.53
2022-11-21T16:50:50.691Z,98560.50
2022-11-21T16:53:52.272Z,98560.63
2022-11-21T16:56:55.328Z,98564.66
2022-11-21T16:59:59.149Z,98573.28
2022-11-21T17:03:01.267Z,98558.53
2022-11-21T17:06:02.977Z,98559.53
2022-11-21T17:09:04.687Z,98550.28
2022-11-21T17:12:08.083Z,98545.06
2022-11-21T17:15:12.467Z,98549.22
2022-11-21T17:18:14.136Z,98536.59
2022-11-21T17:21:16.384Z,98524.09
2022-11-21T17:24:18.440Z,98511.78
2022-11-21T17:27:22.364Z,98496.13
2022-11-21T17:30:24.218Z,98474.59
2022-11-21T17:33:26.220Z,98493.41
2022-11-21T17:36:29.415Z,98498.66
2022-11-21T17:39:31.553Z,98501.31
2022-11-21T17:42:34.834Z,98502.84
2022-11-21T17:45:36.522Z,98508.09
2022-11-21T17:48:38.690Z,98503.16
2022-11-21T17:51:40.855Z,98510.69
2022-11-21T17:54:42.585Z,98488.34
2022-11-21T17:57:46.944Z,98485.06
2022-11-21T18:00:54.582Z,98500.63
2022-11-21T18:03:58.205Z,98489.00
2022-11-21T18:06:59.827Z,98476.81
2022-11-21T18:10:27.439Z,98467.81
2022-11-21T18:13:25.181Z,98469.78
2022-11-21T18:16:28.822Z,98486.97
2022-11-21T18:19:30.526Z,98484.13
2022-11-21T18:22:32.138Z,98494.03
2022-11-21T18:25:34.736Z,98482.47
2022-11-21T18:28:37.994Z,98473.00
2022-11-21T18:31:39.671Z,98469.84
2022-11-21T18:34:41.325Z,98460.81
2022-11-21T18:37:43.046Z,98446.03
2022-11-21T18:40:44.692Z,98452.34
2022-11-21T18:43:51.671Z,98460.75
2022-11-21T18:46:53.594Z,98477.06
2022-11-21T18:49:55.377Z,98486.34
2022-11-21T18:52:57.128Z,98503.72
2022-11-21T18:55:59.280Z,98511.66
2022-11-21T18:59:03.465Z,98511.00
2022-11-21T19:02:05.322Z,98503.75
2022-11-21T19:05:07.571Z,98494.28
2022-11-21T19:08:09.319Z,98477.97
2022-11-21T19:11:13.128Z,98467.69
2022-11-21T19:14:16.146Z,98477.81
2022-11-21T19:17:18.415Z,98470.41
2022-11-21T19:20:20.087Z,98460.28
2022-11-21T19:23:21.821Z,98436.47
2022-11-21T19:26:23.736Z,98425.94
2022-11-21T19:29:27.064Z,98412.06
2022-11-21T19:32:30.786Z,98414.00
2022-11-21T19:35:32.450Z,98403.44
2022-11-21T19:38:34.354Z,98399.25
2022-11-21T19:41:36.384Z,98403.41
2022-11-21T19:44:39.487Z,98394.69
2022-11-21T19:47:41.188Z,98387.97
2022-11-21T19:50:49.284Z,98384.81
2022-11-21T19:53:52.428Z,98379.09
2022-11-21T19:56:54.115Z,98380.13
2022-11-21T19:59:57.207Z,98383.66
2022-11-21T20:02:58.981Z,98381.03
2022-11-21T20:06:04.851Z,98380.13
2022-11-21T20:09:08.046Z,98385.22
2022-11-21T20:12:09.694Z,98376.06
2022-11-21T20:15:12.814Z,98382.88
2022-11-21T20:18:14.519Z,98385.81
2022-11-21T20:21:17.379Z,98378.75
2022-11-21T20:24:19.228Z,98378.88
2022-11-21T20:27:20.909Z,98381.63
2022-11-21T20:30:24.977Z,98362.88
2022-11-21T20:33:26.606Z,98358.66
2022-11-21T20:36:29.916Z,98349.78
2022-11-21T20:39:32.251Z,98352.97
2022-11-21T20:42:34.470Z,98348.44
2022-11-21T20:48:59.169Z,98358.19
2022-11-21T20:55:22.529Z,98358.31
2022-11-21T20:58:24.356Z,98352.75
2022-11-21T21:01:28.459Z,98351.84
2022-11-21T21:04:30.245Z,98358.09
2022-11-21T21:07:31.988Z,98350.34
2022-11-21T21:10:51.471Z,98348.75
2022-11-21T21:13:55.364Z,98353.47
2022-11-21T21:16:58.410Z,98353.59
2022-11-21T21:20:00.094Z,98348.94
2022-11-21T21:23:01.852Z,98356.44
2022-11-21T21:26:11.806Z,98354.81
2022-11-21T21:29:16.184Z,98345.94
2022-11-21T21:32:19.288Z,98346.94
2022-11-21T21:35:21.066Z,98342.06
2022-11-21T21:38:22.666Z,98333.84
2022-11-21T21:41:26.521Z,98328.75
2022-11-21T21:44:32.959Z,98333.63
2022-11-21T21:47:36.626Z,98343.16
2022-11-21T21:50:38.306Z,98344.84
2022-11-21T21:53:40.141Z,98341.50
2022-11-21T21:56:41.800Z,98342.44
2022-11-21T21:59:43.523Z,98350.00
2022-11-21T22:02:46.575Z,98341.78
2022-11-21T22:05:48.224Z,98346.72
2022-11-21T22:08:50.731Z,98345.59
2022-11-21T22:11:54.008Z,98342.63
2022-11-21T22:14:55.686Z,98347.13
2022-11-21T22:17:58.819Z,98350.63
2022-11-21T22:21:01.154Z,98345.53
2022-11-21T22:27:25.992Z,98326.84
2022-11-21T22:30:27.640Z,98321.53
2022-11-21T22:33:30.757Z,98329.41
2022-11-21T22:36:32.837Z,98328.88
2022-11-21T22:39:34.499Z,98332.63
2022-11-21T22:42:36.152Z,98330.94
2022-11-21T22:45:37.812Z,98327.63
2022-11-21T22:48:40.878Z,98337.91
2022-11-21T22:51:43.661Z,98341.41
2022-11-21T22:54:45.380Z,98334.38
2022-11-21T22:57:47.112Z,98327.22
2022-11-21T23:00:48.739Z,98325.03
2022-11-21T23:03:52.232Z,98323.47
2022-11-21T23:06:53.869Z,98327.41
2022-11-21T23:09:55.716Z,98324.69
2022-11-21T23:12:57.514Z,98319.06
2022-11-21T23:15:59.594Z,98311.28
2022-11-21T23:19:02.723Z,98306.75
2022-11-21T23:22:04.435Z,98298.53
2022-11-21T23:25:06.501Z,98293.59
2022-11-21T23:28:08.532Z,98291.22
2022-11-21T23:31:10.768Z,98296.78
2022-11-21T23:34:13.852Z,98287.16
2022-11-21T23:37:15.501Z,98292.81
2022-11-21T23:40:17.379Z,98300.53
2022-11-21T23:43:19.365Z,98287.72
2022-11-21T23:46:21.073Z,98289.31
2022-11-21T23:49:24.103Z,98288.66
2022-11-21T23:52:25.709Z,98290.28
2022-11-21T23:55:27.688Z,98293.09
2022-11-21T23:58:29.340Z,98293.09
